Doksany, Czech Republic

9:21 AM CEST on August 28, 2014 (GMT +0200)
Ovocnarstvi Ploskovice, Petrasek | Change Station
CLOSE
Current Station
Personal Weather Station
Location: Ploskovice, Litomerice
Elevation: 810 ft
Nearby Weather Stations

Elev 810 ft 50.56 °N, 14.20 °E | Updated 1 minute ago

Clear
Clear
53.1 °F
Feels Like 53.1 °F
N
0.0
Wind Variable Wind from North
Gusts 2.0 mph

Today
High -- | Low -- °F
--% Chance of Precip.
Yesterday
High -- | Low -- °F
Precip. -- in
6:11 AM 7:56 PM
Waxing Crescent, 7% visible
Pressure 30.12 in
Visibility -9999.0 miles
Clouds
Dew Point 51 °F
Humidity 93%
Rainfall 0.00 in
Snow Depth Not available.
UV Not available.
Pollen Not available.
Air Quality Not available.
Flu Activity Not available.
METAR LKVO 280708Z 19003KT CAVOK 13/10 Q1020

More Conditions Fewer Conditions

Pressure 30.12 in
Visibility -9999.0 miles
Clouds
Dew Point 51 °F
Humidity 93%
Rainfall 0.00 in
Snow Depth Not available.
UV Not available.
Pollen Not available.
Air Quality Not available.
Flu Activity Not available.
METAR LKVO 280708Z 19003KT CAVOK 13/10 Q1020

More Conditions Fewer Conditions

10-Day Weather Forecast

Almanac

Astronomy

Aug. 28, 2014 Rise Set
Actual Time 6:11 AM CEST 7:56 PM CEST
Civil Twilight 5:36 AM CEST 8:31 PM CEST
Nautical Twilight 4:53 AM CEST 9:13 PM CEST
Astronomical Twilight 4:06 AM CEST 10:00 PM CEST
Moon 9:07 AM CEST 8:48 PM CEST
Length of Visible Light 14h 54m
Length of Day
13h 45m
Tomorrow will be 3m 38s shorter.
Waxing Crescent, 7% of the Moon is Illuminated
Today
Waxing Crescent
Sep 2
First Quarter
Sep 8
Full
Sep 15
Last Quarter
Sep 24
New

Yesterday's Extremes

Country Highs Country Lows

Community

WunderPhotos

Upload Photos

1,747,912 photos uploaded!

Nearby

Snow Depth

Not available.

Earthquake Activity

City Distance Mag. Time & Date
No recent earthquake activity has been reported nearby.
Minimum magnitude displayed is 2.5.

Coastal Water Temperatures

Place Temperature
No Stations Reporting

Nearby Weather Stations